Time;durP1;ratioP1;P1;durP2;ratioP2;P2;SDS_P1;SDS_P2;PMS_P1;PMS_P2;Temp;Humidity;BMP_temperature;BMP_pressure;BME280_temperature;BME280_humidity;BME280_pressure;Samples;Min_cycle;Max_cycle;Signal;HPM_P1;HPM_P2
2022/05/13 00:01:41;;;;;;;3.30;2.00;;;20.80;39.90;;;;;;5059373;28;20303;-57
2022/05/13 00:04:07;;;;;;;4.17;2.80;;;20.80;39.90;;;;;;5054154;28;20226;-57
2022/05/13 00:06:33;;;;;;;2.33;2.23;;;20.80;39.90;;;;;;5060387;28;20430;-59
2022/05/13 00:08:58;;;;;;;2.20;2.10;;;20.80;39.90;;;;;;5060549;28;20313;-57
2022/05/13 00:11:24;;;;;;;3.13;2.20;;;20.80;39.90;;;;;;5058068;28;20325;-57
2022/05/13 00:13:49;;;;;;;2.20;2.10;;;20.80;39.90;;;;;;5060273;28;20225;-57
2022/05/13 00:16:15;;;;;;;2.40;2.10;;;20.80;39.90;;;;;;5060021;28;20295;-58
2022/05/13 00:18:41;;;;;;;2.10;1.80;;;20.80;39.90;;;;;;5060590;28;20233;-57
2022/05/13 00:21:07;;;;;;;2.50;1.70;;;20.80;39.90;;;;;;5057698;28;20458;-59
2022/05/13 00:23:32;;;;;;;1.93;1.83;;;20.80;39.90;;;;;;5058708;28;20248;-58
2022/05/13 00:25:58;;;;;;;1.90;1.80;;;20.80;39.90;;;;;;5056599;28;20609;-57
2022/05/13 00:28:24;;;;;;;1.80;1.70;;;20.80;39.90;;;;;;5063617;28;20229;-58
2022/05/13 00:30:50;;;;;;;1.73;1.63;;;20.80;39.90;;;;;;5058259;28;20283;-57
2022/05/13 00:33:17;;;;;;;1.87;1.77;;;20.80;39.90;;;;;;5059946;28;20304;-57
2022/05/13 00:35:43;;;;;;;1.80;1.70;;;20.80;39.90;;;;;;5056256;28;20438;-58
2022/05/13 00:38:09;;;;;;;1.97;1.87;;;20.80;39.80;;;;;;5056367;28;20471;-58
2022/05/13 00:40:35;;;;;;;1.80;1.70;;;20.80;39.80;;;;;;5055283;28;20221;-58
2022/05/13 00:43:04;;;;;;;1.77;1.67;;;20.80;40.60;;;;;;5059575;28;20447;-57
2022/05/13 00:45:31;;;;;;;2.53;1.93;;;20.70;39.60;;;;;;5060173;28;20454;-58
2022/05/13 00:47:57;;;;;;;1.93;1.83;;;20.80;39.70;;;;;;5060269;28;20947;-58
2022/05/13 00:50:24;;;;;;;1.83;1.73;;;20.70;39.60;;;;;;5057348;28;20504;-57
2022/05/13 00:52:50;;;;;;;1.70;1.60;;;20.70;39.60;;;;;;5058419;28;20683;-57
2022/05/13 00:55:27;;;;;;;1.90;1.80;;;20.70;39.50;;;;;;5059548;28;20417;-58
2022/05/13 00:57:52;;;;;;;1.93;1.83;;;20.70;39.50;;;;;;5059934;28;20446;-58
2022/05/13 01:00:19;;;;;;;1.93;1.83;;;20.70;39.50;;;;;;5059206;28;20790;-57
2022/05/13 01:02:45;;;;;;;2.10;1.90;;;20.70;39.50;;;;;;5064252;28;20235;-57
2022/05/13 01:05:13;;;;;;;1.73;1.63;;;20.70;39.50;;;;;;5058811;28;20434;-57
2022/05/13 01:07:40;;;;;;;1.50;1.40;;;20.70;39.50;;;;;;5061106;28;20450;-58
2022/05/13 01:10:10;;;;;;;1.73;1.63;;;20.70;39.50;;;;;;5056363;28;20486;-58
2022/05/13 01:12:39;;;;;;;1.70;1.60;;;20.70;39.40;;;;;;5055510;28;20475;-59
2022/05/13 01:15:12;;;;;;;1.80;1.70;;;20.70;39.30;;;;;;5061039;28;20520;-57
2022/05/13 01:20:29;;;;;;;2.10;1.90;;;20.70;39.30;;;;;;5059789;28;20876;-58
2022/05/13 01:23:00;;;;;;;2.30;1.90;;;20.70;39.40;;;;;;5055012;28;20434;-58
2022/05/13 01:25:28;;;;;;;2.10;1.60;;;20.70;39.30;;;;;;5060169;28;20846;-58
2022/05/13 01:27:57;;;;;;;1.60;1.50;;;20.70;39.20;;;;;;5058578;28;20436;-57
2022/05/13 01:30:26;;;;;;;1.90;1.80;;;20.70;39.20;;;;;;5059501;28;20808;-58
2022/05/13 01:32:53;;;;;;;1.67;1.57;;;20.70;39.20;;;;;;5057332;28;20542;-59
2022/05/13 01:35:19;;;;;;;2.03;1.63;;;20.70;39.20;;;;;;5058315;28;20511;-58
2022/05/13 01:37:45;;;;;;;1.73;1.63;;;20.70;39.20;;;;;;5055043;28;20463;-57
2022/05/13 01:40:11;;;;;;;1.80;1.70;;;20.70;39.20;;;;;;5061377;28;20913;-58
2022/05/13 01:42:37;;;;;;;1.70;1.60;;;20.70;39.20;;;;;;5059920;28;20447;-58
2022/05/13 01:45:04;;;;;;;1.60;1.50;;;20.70;39.10;;;;;;5061812;28;20962;-57
2022/05/13 01:47:30;;;;;;;1.60;1.50;;;20.70;39.10;;;;;;5059022;28;20214;-57
2022/05/13 01:49:56;;;;;;;2.70;1.70;;;20.70;39.10;;;;;;5060329;28;20454;-58
2022/05/13 01:52:23;;;;;;;1.50;1.40;;;20.70;39.00;;;;;;5054517;28;20218;-57
2022/05/13 01:54:49;;;;;;;2.10;2.00;;;20.70;39.00;;;;;;5058368;28;20833;-57
2022/05/13 01:57:15;;;;;;;1.77;1.50;;;20.70;39.00;;;;;;5059160;28;20508;-58
2022/05/13 01:59:41;;;;;;;1.73;1.63;;;20.70;38.90;;;;;;5058241;28;20226;-58
2022/05/13 02:02:07;;;;;;;2.17;1.70;;;20.70;38.90;;;;;;5055495;28;20967;-58
2022/05/13 02:04:32;;;;;;;1.60;1.50;;;20.70;38.90;;;;;;5056940;28;20222;-58
2022/05/13 02:06:58;;;;;;;2.50;1.50;;;20.70;38.90;;;;;;5057156;28;20230;-57
2022/05/13 02:09:24;;;;;;;2.90;1.50;;;20.60;38.80;;;;;;5058305;28;20266;-58
2022/05/13 02:11:49;;;;;;;1.40;1.30;;;20.70;38.80;;;;;;5056827;28;20225;-57
2022/05/13 02:14:16;;;;;;;1.50;1.40;;;20.70;38.80;;;;;;5058431;28;20611;-57
2022/05/13 02:16:42;;;;;;;1.50;1.40;;;20.60;38.70;;;;;;5061109;28;20300;-57
2022/05/13 02:19:08;;;;;;;1.57;1.43;;;20.60;38.70;;;;;;5056445;28;20511;-58
2022/05/13 02:21:34;;;;;;;2.03;1.40;;;20.60;38.70;;;;;;5054151;28;20312;-58
2022/05/13 02:24:00;;;;;;;1.60;1.50;;;20.60;38.70;;;;;;5064363;28;20210;-58
2022/05/13 02:26:25;;;;;;;1.97;1.50;;;20.60;38.70;;;;;;5061376;28;20482;-57
2022/05/13 02:28:51;;;;;;;2.50;1.40;;;20.60;38.70;;;;;;5063512;28;20223;-57
2022/05/13 02:31:17;;;;;;;2.10;1.60;;;20.60;38.70;;;;;;5060227;28;20295;-58
2022/05/13 02:33:43;;;;;;;1.60;1.50;;;20.60;38.70;;;;;;5064073;28;20375;-58
2022/05/13 02:36:11;;;;;;;2.50;1.67;;;20.60;38.70;;;;;;5059799;28;20209;-59
2022/05/13 02:38:37;;;;;;;1.60;1.50;;;20.60;38.60;;;;;;5064885;28;20459;-58
2022/05/13 02:41:13;;;;;;;1.93;1.73;;;20.60;38.60;;;;;;5062657;28;20457;-58
2022/05/13 02:43:55;;;;;;;2.70;1.33;;;20.60;38.60;;;;;;5058514;28;20967;-57
2022/05/13 02:46:28;;;;;;;1.53;1.43;;;20.60;38.60;;;;;;5062936;28;20851;-57
2022/05/13 02:48:55;;;;;;;1.93;1.53;;;20.60;38.60;;;;;;5060073;28;20757;-58
2022/05/13 02:51:22;;;;;;;5.03;1.60;;;20.60;38.60;;;;;;5065601;28;20478;-57
2022/05/13 02:53:47;;;;;;;2.50;1.40;;;20.60;38.60;;;;;;5058873;28;20588;-58
2022/05/13 02:56:14;;;;;;;1.90;1.50;;;20.60;38.60;;;;;;5062277;28;20916;-57
2022/05/13 02:58:40;;;;;;;1.57;1.47;;;20.60;38.60;;;;;;5065522;28;20687;-57
2022/05/13 03:01:09;;;;;;;3.60;1.63;;;20.60;38.50;;;;;;5061361;28;20513;-58
2022/05/13 03:03:38;;;;;;;1.40;1.30;;;20.60;38.60;;;;;;5063522;28;20457;-58
2022/05/13 03:06:03;;;;;;;1.53;1.43;;;20.70;38.70;;;;;;5059400;28;20442;-57
2022/05/13 03:08:29;;;;;;;1.47;1.37;;;20.60;38.60;;;;;;5064002;28;20444;-57
2022/05/13 03:10:54;;;;;;;1.57;1.47;;;20.60;38.60;;;;;;5057193;28;20683;-58
2022/05/13 03:13:20;;;;;;;2.47;1.93;;;20.60;38.50;;;;;;5058622;28;20236;-59
2022/05/13 03:15:47;;;;;;;5.53;1.50;;;20.60;38.50;;;;;;5059036;28;20214;-58
2022/05/13 03:18:13;;;;;;;4.13;1.60;;;20.60;38.50;;;;;;5062428;28;20238;-58
2022/05/13 03:20:38;;;;;;;1.50;1.40;;;20.60;38.40;;;;;;5057775;28;20817;-58
2022/05/13 03:23:04;;;;;;;1.40;1.30;;;20.60;38.40;;;;;;5059353;28;20637;-57
2022/05/13 03:25:30;;;;;;;1.80;1.57;;;20.60;38.40;;;;;;5063986;28;20351;-58
2022/05/13 03:27:55;;;;;;;2.00;1.37;;;20.60;38.30;;;;;;5060347;28;20219;-57
2022/05/13 03:30:23;;;;;;;1.60;1.50;;;20.60;38.30;;;;;;5061592;28;20977;-60
2022/05/13 03:32:49;;;;;;;1.50;1.40;;;20.60;38.30;;;;;;5061823;28;20225;-58
2022/05/13 03:35:17;;;;;;;1.53;1.43;;;20.60;38.30;;;;;;5060689;28;20452;-59
2022/05/13 03:37:43;;;;;;;1.63;1.17;;;20.60;38.20;;;;;;5060285;28;20963;-58
2022/05/13 03:40:10;;;;;;;1.83;1.30;;;20.60;39.00;;;;;;5062549;28;20463;-58
2022/05/13 03:42:36;;;;;;;2.00;1.70;;;20.60;39.00;;;;;;5061074;28;20221;-58
2022/05/13 03:45:06;;;;;;;1.40;1.30;;;20.60;38.10;;;;;;5057491;28;20536;-58
2022/05/13 03:47:32;;;;;;;1.67;1.43;;;20.60;38.10;;;;;;5056920;28;20533;-58
2022/05/13 03:49:58;;;;;;;1.50;1.40;;;20.60;38.10;;;;;;5059994;28;20499;-57
2022/05/13 03:52:24;;;;;;;1.87;1.50;;;20.60;38.10;;;;;;5059679;28;20552;-58
2022/05/13 03:54:50;;;;;;;1.40;1.13;;;20.60;38.00;;;;;;5058816;28;20226;-58
2022/05/13 03:57:15;;;;;;;1.60;1.50;;;20.60;38.00;;;;;;5056269;28;20423;-58
2022/05/13 03:59:41;;;;;;;1.40;1.20;;;20.60;38.00;;;;;;5059648;28;20312;-57
2022/05/13 04:02:07;;;;;;;1.20;1.10;;;20.60;37.90;;;;;;5058067;28;20237;-57
2022/05/13 04:08:56;;;;;;;1.30;1.20;;;20.60;38.00;;;;;;5064361;28;20211;-58
2022/05/13 04:10:05;;;;;;;1.87;1.37;;;20.60;37.90;;;;;;5059013;28;20885;-57
2022/05/13 04:17:59;;;;;;;1.20;1.10;;;20.60;37.90;;;;;;5062694;28;20498;-58
2022/05/13 04:20:25;;;;;;;1.17;1.07;;;20.60;37.90;;;;;;5059215;28;20438;-58
2022/05/13 04:22:51;;;;;;;1.47;1.30;;;20.60;37.70;;;;;;5058331;28;20222;-57
2022/05/13 04:25:17;;;;;;;1.80;1.70;;;20.60;37.70;;;;;;5060552;28;20234;-58
2022/05/13 04:27:43;;;;;;;1.40;1.20;;;20.70;37.80;;;;;;5057954;28;20229;-57
2022/05/13 04:30:09;;;;;;;1.77;1.30;;;20.70;37.60;;;;;;5059786;28;20450;-59
2022/05/13 04:32:35;;;;;;;1.30;1.20;;;20.80;37.70;;;;;;5057913;28;20226;-59
2022/05/13 04:35:00;;;;;;;1.30;1.20;;;20.80;37.60;;;;;;5061518;28;20530;-59
2022/05/13 04:37:26;;;;;;;1.37;1.27;;;20.80;37.60;;;;;;5061274;28;20771;-60
2022/05/13 04:39:53;;;;;;;1.30;1.20;;;20.80;37.70;;;;;;5057187;28;20571;-59
2022/05/13 04:45:05;;;;;;;1.40;1.30;;;20.80;38.20;;;;;;5061183;28;20857;-59
2022/05/13 04:50:15;;;;;;;1.30;1.20;;;20.70;38.80;;;;;;5058892;28;20563;-58
2022/05/13 04:52:40;;;;;;;1.20;1.10;;;20.80;39.10;;;;;;5059846;28;20529;-58
2022/05/13 04:55:06;;;;;;;1.40;1.30;;;20.70;39.30;;;;;;5054895;28;20224;-58
2022/05/13 04:57:32;;;;;;;1.40;1.20;;;20.70;39.70;;;;;;5063032;28;20313;-58
2022/05/13 04:59:58;;;;;;;1.47;1.37;;;20.70;39.80;;;;;;5067618;28;20466;-58
2022/05/13 05:02:23;;;;;;;1.10;1.00;;;20.70;39.80;;;;;;5059860;28;20507;-57
2022/05/13 05:04:49;;;;;;;1.67;1.57;;;20.70;39.80;;;;;;5058236;28;20300;-57
2022/05/13 05:07:15;;;;;;;1.20;1.10;;;20.70;39.80;;;;;;5057042;28;20683;-57
2022/05/13 05:09:40;;;;;;;1.60;1.10;;;20.70;39.80;;;;;;5063157;28;20249;-60
2022/05/13 05:12:08;;;;;;;1.30;1.20;;;20.70;40.20;;;;;;5058691;28;20223;-58
2022/05/13 05:14:33;;;;;;;1.40;1.30;;;20.70;41.20;;;;;;5059120;28;20228;-58
2022/05/13 05:16:59;;;;;;;1.03;0.97;;;20.70;40.60;;;;;;5058376;28;20936;-59
2022/05/13 05:19:25;;;;;;;1.40;1.30;;;20.70;40.80;;;;;;5061617;28;20257;-59
2022/05/13 05:21:51;;;;;;;1.40;1.30;;;20.70;40.90;;;;;;5057540;28;20222;-59
2022/05/13 05:24:16;;;;;;;1.40;1.30;;;20.60;41.00;;;;;;5052003;28;20216;-59
2022/05/13 05:26:42;;;;;;;1.47;1.20;;;20.60;41.10;;;;;;5059032;28;20454;-59
2022/05/13 05:29:08;;;;;;;1.70;1.40;;;20.70;41.20;;;;;;5063041;28;20305;-58
2022/05/13 05:31:34;;;;;;;1.23;1.13;;;20.70;41.20;;;;;;5058335;28;20219;-58
2022/05/13 05:33:59;;;;;;;1.20;1.10;;;20.70;41.30;;;;;;5059845;28;20260;-60
2022/05/13 05:36:25;;;;;;;1.30;1.20;;;20.70;41.40;;;;;;5057593;28;20286;-58
2022/05/13 05:38:50;;;;;;;1.67;1.50;;;20.70;41.50;;;;;;5061213;28;20243;-58
2022/05/13 05:41:16;;;;;;;1.30;1.20;;;20.70;41.60;;;;;;5057605;28;20230;-58
2022/05/13 05:43:43;;;;;;;2.00;1.10;;;20.70;41.70;;;;;;5057555;28;20739;-58
2022/05/13 05:46:08;;;;;;;1.20;1.10;;;20.70;42.50;;;;;;5058528;28;20742;-57
2022/05/13 05:48:34;;;;;;;1.73;1.10;;;20.60;41.70;;;;;;5059333;28;20438;-57
2022/05/13 05:51:00;;;;;;;1.20;1.10;;;20.60;41.70;;;;;;5057007;28;20589;-57
2022/05/13 05:59:00;;;;;;;1.33;1.10;;;20.60;42.00;;;;;;5068203;28;20542;-58
2022/05/13 06:01:26;;;;;;;1.93;1.20;;;20.60;42.00;;;;;;5062376;28;20455;-58
2022/05/13 06:03:52;;;;;;;1.23;1.13;;;20.60;42.00;;;;;;5070418;28;20499;-59
2022/05/13 06:06:17;;;;;;;1.60;1.10;;;20.60;42.10;;;;;;5066431;28;20443;-57
2022/05/13 06:08:43;;;;;;;1.47;1.37;;;20.60;42.10;;;;;;5066363;28;20237;-58
2022/05/13 06:11:09;;;;;;;1.30;1.20;;;20.60;42.20;;;;;;5063115;28;20214;-58
2022/05/13 06:13:35;;;;;;;1.53;1.40;;;20.60;42.20;;;;;;5060545;28;20218;-58
2022/05/13 06:16:01;;;;;;;1.30;1.20;;;20.60;42.20;;;;;;5062324;28;20582;-58
2022/05/13 06:18:26;;;;;;;1.50;1.10;;;20.60;42.30;;;;;;5065022;28;20256;-58
2022/05/13 06:20:52;;;;;;;1.80;1.17;;;20.60;42.30;;;;;;5058210;28;20226;-58
2022/05/13 06:23:17;;;;;;;3.10;1.30;;;20.60;42.30;;;;;;5059130;28;20576;-58
2022/05/13 06:25:43;;;;;;;1.30;1.20;;;20.60;42.40;;;;;;5064007;28;20679;-59
2022/05/13 06:28:09;;;;;;;1.67;1.30;;;20.60;42.40;;;;;;5059091;28;20631;-58
2022/05/13 06:30:36;;;;;;;1.87;1.17;;;20.60;42.40;;;;;;5062774;28;20233;-58
2022/05/13 06:33:03;;;;;;;1.70;1.30;;;20.60;42.50;;;;;;5061148;28;20223;-58
2022/05/13 06:35:31;;;;;;;1.40;1.10;;;20.60;42.50;;;;;;5063059;28;20543;-59
2022/05/13 06:37:56;;;;;;;1.30;1.20;;;20.60;42.60;;;;;;5063029;28;20436;-59
2022/05/13 06:40:22;;;;;;;1.43;1.33;;;20.60;42.60;;;;;;5062963;28;20483;-57
2022/05/13 06:42:49;;;;;;;2.00;1.20;;;20.60;42.60;;;;;;5060803;28;20218;-58
2022/05/13 06:45:14;;;;;;;1.47;1.37;;;20.60;42.70;;;;;;5065991;28;20951;-58
2022/05/13 06:47:40;;;;;;;1.40;1.30;;;20.60;42.70;;;;;;5062408;28;20492;-58
2022/05/13 06:50:13;;;;;;;1.30;1.03;;;20.60;42.70;;;;;;5060051;28;20337;-58
2022/05/13 06:52:38;;;;;;;2.63;1.10;;;20.60;42.70;;;;;;5059775;28;20344;-59
2022/05/13 06:55:07;;;;;;;1.30;1.20;;;20.60;42.70;;;;;;5059129;28;20800;-58
2022/05/13 06:57:32;;;;;;;1.20;1.10;;;20.60;42.80;;;;;;5058093;28;20222;-58
2022/05/13 06:59:58;;;;;;;1.40;1.30;;;20.60;42.80;;;;;;5059612;28;20782;-58
2022/05/13 07:02:24;;;;;;;3.40;1.20;;;20.60;42.80;;;;;;5060801;28;20238;-59
2022/05/13 07:04:50;;;;;;;1.10;1.00;;;20.60;42.80;;;;;;5057848;28;20686;-58
2022/05/13 07:07:16;;;;;;;1.20;1.10;;;20.60;42.90;;;;;;5059541;28;20229;-59
2022/05/13 07:09:42;;;;;;;1.20;1.10;;;20.60;42.90;;;;;;5057453;28;20861;-58
2022/05/13 07:12:08;;;;;;;1.70;1.10;;;20.60;42.90;;;;;;5059598;28;20667;-58
2022/05/13 07:14:35;;;;;;;1.67;1.50;;;20.60;43.00;;;;;;5064585;28;20302;-58
2022/05/13 07:17:04;;;;;;;1.70;1.20;;;20.60;43.00;;;;;;5059170;28;20451;-57
2022/05/13 07:19:30;;;;;;;1.20;1.10;;;20.60;43.00;;;;;;5060368;28;20483;-58
2022/05/13 07:21:56;;;;;;;1.20;1.10;;;20.60;43.00;;;;;;5066979;28;21053;-59
2022/05/13 07:24:23;;;;;;;1.20;1.10;;;20.60;43.00;;;;;;5061831;28;20425;-58
2022/05/13 07:26:49;;;;;;;1.93;1.10;;;20.60;43.00;;;;;;5061843;28;20225;-58
2022/05/13 07:29:15;;;;;;;1.20;1.10;;;20.60;43.00;;;;;;5064946;28;20531;-57
2022/05/13 07:31:41;;;;;;;1.37;1.27;;;20.60;43.00;;;;;;5059362;28;20446;-58
2022/05/13 07:34:07;;;;;;;1.20;1.10;;;20.60;43.10;;;;;;5056537;28;20502;-58
2022/05/13 07:36:33;;;;;;;1.20;1.10;;;20.60;43.10;;;;;;5058975;28;20218;-58
2022/05/13 07:41:43;;;;;;;1.40;1.30;;;20.60;43.10;;;;;;5056430;28;20481;-57
2022/05/13 07:44:08;;;;;;;1.30;1.20;;;20.60;43.10;;;;;;5059776;28;21040;-57
2022/05/13 07:46:34;;;;;;;1.80;1.20;;;20.60;43.20;;;;;;5059580;28;20226;-57
2022/05/13 07:49:00;;;;;;;1.30;1.20;;;20.60;43.10;;;;;;5062134;28;20257;-57
2022/05/13 07:51:26;;;;;;;1.30;1.10;;;20.60;43.10;;;;;;5064121;28;20221;-58
2022/05/13 07:53:53;;;;;;;1.30;1.20;;;20.60;43.20;;;;;;5060738;28;20242;-57
2022/05/13 07:56:19;;;;;;;1.43;1.10;;;20.60;43.20;;;;;;5060700;28;20825;-57
2022/05/13 07:58:44;;;;;;;1.63;1.20;;;20.60;43.20;;;;;;5060393;28;20976;-59
2022/05/13 08:01:10;;;;;;;1.10;1.00;;;20.60;43.20;;;;;;5064076;28;20471;-57
2022/05/13 08:03:35;;;;;;;1.23;1.13;;;20.60;43.30;;;;;;5063401;28;20694;-59
2022/05/13 08:06:05;;;;;;;1.33;1.13;;;20.60;43.30;;;;;;5060195;28;20221;-57
2022/05/13 08:08:35;;;;;;;1.43;1.30;;;20.60;43.30;;;;;;5063371;28;20222;-58
2022/05/13 08:11:03;;;;;;;1.13;1.03;;;20.60;43.30;;;;;;5058009;28;20795;-57
2022/05/13 08:13:34;;;;;;;1.20;1.10;;;20.60;43.30;;;;;;5059888;28;20447;-57
2022/05/13 08:16:01;;;;;;;1.30;1.20;;;20.60;43.30;;;;;;5057408;28;20512;-58
2022/05/13 08:18:26;;;;;;;1.20;1.10;;;20.60;43.30;;;;;;5057585;28;20471;-58
2022/05/13 08:20:52;;;;;;;1.10;1.00;;;20.60;43.30;;;;;;5058828;28;20512;-58
2022/05/13 08:23:19;;;;;;;1.30;1.20;;;20.60;43.50;;;;;;5062307;28;20297;-58
2022/05/13 08:25:45;;;;;;;1.20;1.10;;;20.60;43.30;;;;;;5059185;28;20464;-57
2022/05/13 08:28:11;;;;;;;4.17;1.43;;;20.60;43.30;;;;;;5059956;28;20443;-58
2022/05/13 08:30:37;;;;;;;1.80;1.20;;;20.60;43.30;;;;;;5057124;28;20855;-58
2022/05/13 08:33:08;;;;;;;1.47;1.37;;;20.60;43.30;;;;;;5055296;28;20959;-58
2022/05/13 08:35:47;;;;;;;1.20;1.10;;;20.60;43.30;;;;;;5058604;28;20221;-58
2022/05/13 08:38:17;;;;;;;3.00;1.10;;;20.60;43.40;;;;;;5061062;28;20467;-58
2022/05/13 08:40:52;;;;;;;1.47;1.37;;;20.60;43.40;;;;;;5054891;28;20471;-58
2022/05/13 08:43:22;;;;;;;3.40;1.37;;;20.60;43.40;;;;;;5058867;28;20806;-57
2022/05/13 08:46:12;;;;;;;1.40;1.17;;;20.60;43.40;;;;;;5060385;28;20438;-57
2022/05/13 08:49:05;;;;;;;1.20;1.10;;;20.60;43.40;;;;;;5058392;28;20458;-57
2022/05/13 08:55:09;;;;;;;1.80;1.10;;;20.60;43.40;;;;;;5058238;28;20523;-60
2022/05/13 08:57:40;;;;;;;1.70;1.30;;;20.60;43.50;;;;;;5060325;28;20508;-58
2022/05/13 09:00:15;;;;;;;1.17;1.07;;;20.60;43.50;;;;;;5055978;28;20524;-58
2022/05/13 09:03:04;;;;;;;3.30;1.23;;;20.60;43.50;;;;;;5055586;28;20497;-58
2022/05/13 09:05:41;;;;;;;1.30;1.20;;;20.60;43.50;;;;;;5058389;28;20482;-58
2022/05/13 09:08:08;;;;;;;1.57;1.30;;;20.60;43.50;;;;;;5057473;28;20458;-58
2022/05/13 09:11:04;;;;;;;1.40;1.30;;;20.60;43.50;;;;;;5058488;28;20853;-58
2022/05/13 09:13:51;;;;;;;1.53;1.20;;;20.60;43.50;;;;;;5032316;28;20942;-58
2022/05/13 09:16:42;;;;;;;1.20;1.10;;;20.60;43.50;;;;;;5056560;28;20455;-59
2022/05/13 09:19:24;;;;;;;1.50;1.30;;;20.60;43.50;;;;;;5065646;28;20818;-58
2022/05/13 09:21:50;;;;;;;1.67;1.20;;;20.60;43.50;;;;;;5061082;28;20474;-59
2022/05/13 09:24:16;;;;;;;1.20;1.10;;;20.60;43.60;;;;;;5061515;28;20540;-59
2022/05/13 09:26:43;;;;;;;1.23;1.13;;;20.60;44.30;;;;;;5055408;28;20242;-58
2022/05/13 09:29:14;;;;;;;1.50;1.33;;;20.60;43.50;;;;;;5058622;28;20305;-58
2022/05/13 09:31:57;;;;;;;1.30;1.17;;;20.60;43.50;;;;;;5055344;28;20844;-58
2022/05/13 09:34:47;;;;;;;1.27;1.17;;;20.60;43.40;;;;;;5059294;28;20443;-59
2022/05/13 09:37:23;;;;;;;2.00;1.20;;;20.60;43.50;;;;;;5062933;28;20480;-57
2022/05/13 09:40:04;;;;;;;1.77;1.10;;;20.60;43.50;;;;;;5062330;28;20529;-58
2022/05/13 09:42:39;;;;;;;1.40;1.30;;;20.60;43.50;;;;;;5061758;28;21030;-58
2022/05/13 09:45:19;;;;;;;1.53;1.43;;;20.60;43.50;;;;;;5067596;28;20461;-59
2022/05/13 09:48:05;;;;;;;1.40;1.30;;;20.60;43.50;;;;;;5060697;28;20909;-59
2022/05/13 09:50:33;;;;;;;1.93;1.30;;;20.60;43.50;;;;;;5044067;28;20459;-59
2022/05/13 09:53:05;;;;;;;1.47;1.37;;;20.60;43.60;;;;;;5063039;28;20504;-61
2022/05/13 09:55:37;;;;;;;1.10;1.07;;;20.60;43.50;;;;;;5062743;28;20493;-61
2022/05/13 09:58:15;;;;;;;1.40;1.30;;;20.60;43.50;;;;;;5063598;28;20426;-59
2022/05/13 10:00:43;;;;;;;1.40;1.30;;;20.60;43.50;;;;;;5055301;28;20553;-59
2022/05/13 10:03:24;;;;;;;1.30;1.10;;;20.60;43.50;;;;;;5065231;28;20467;-59
2022/05/13 10:06:08;;;;;;;1.43;1.20;;;20.60;43.50;;;;;;5054480;28;20466;-58
2022/05/13 10:08:54;;;;;;;1.50;1.40;;;20.60;43.50;;;;;;5061372;28;20495;-58
2022/05/13 10:14:43;;;;;;;1.40;1.30;;;20.60;43.50;;;;;;5058157;28;20501;-58
2022/05/13 10:17:17;;;;;;;1.30;1.20;;;20.60;43.50;;;;;;5034036;28;20464;-57
2022/05/13 10:19:55;;;;;;;1.30;1.20;;;20.60;43.60;;;;;;5061808;28;20470;-58
2022/05/13 10:22:38;;;;;;;1.63;1.53;;;20.60;43.60;;;;;;5066037;28;20918;-58
2022/05/13 10:25:10;;;;;;;1.37;1.27;;;20.60;43.70;;;;;;5063231;28;20469;-58
2022/05/13 10:27:48;;;;;;;1.30;1.20;;;20.60;43.60;;;;;;5065109;28;20493;-58
2022/05/13 10:30:36;;;;;;;1.30;1.20;;;20.60;43.70;;;;;;5056957;28;20792;-58
2022/05/13 10:33:04;;;;;;;1.30;1.20;;;20.60;43.60;;;;;;5059296;28;20819;-58
2022/05/13 10:35:34;;;;;;;1.70;1.60;;;20.60;44.40;;;;;;5064974;28;20481;-58
2022/05/13 10:38:11;;;;;;;1.70;1.27;;;20.60;43.60;;;;;;5064747;28;20433;-59
2022/05/13 10:40:41;;;;;;;1.50;1.40;;;20.60;43.70;;;;;;5059143;28;20433;-59
2022/05/13 10:43:20;;;;;;;1.30;1.20;;;20.60;43.70;;;;;;5062946;28;20437;-58
2022/05/13 10:45:48;;;;;;;1.43;1.33;;;20.60;43.60;;;;;;5056362;28;20455;-57
2022/05/13 10:48:29;;;;;;;1.33;1.23;;;20.60;43.70;;;;;;5060384;28;20986;-58
2022/05/13 10:51:24;;;;;;;1.40;1.30;;;20.60;43.60;;;;;;5062543;28;20451;-58
2022/05/13 10:54:31;;;;;;;1.23;1.13;;;20.60;43.60;;;;;;5067139;28;20553;-58
2022/05/13 10:57:31;;;;;;;1.50;1.40;;;20.60;43.60;;;;;;5053515;28;20460;-58
2022/05/13 11:00:01;;;;;;;1.57;1.47;;;20.50;43.70;;;;;;5065414;28;20471;-58
2022/05/13 11:02:47;;;;;;;1.30;1.20;;;20.50;43.70;;;;;;5062377;28;20459;-58
2022/05/13 11:05:39;;;;;;;1.33;1.23;;;20.50;43.70;;;;;;5066687;28;20452;-58
2022/05/13 11:08:14;;;;;;;1.60;1.50;;;20.50;43.60;;;;;;5059171;28;20885;-58
2022/05/13 11:10:57;;;;;;;1.33;1.23;;;20.50;43.70;;;;;;5065252;28;20822;-58
2022/05/13 11:13:43;;;;;;;1.43;1.33;;;20.50;43.70;;;;;;5066991;28;20451;-58
2022/05/13 11:16:38;;;;;;;1.50;1.40;;;20.60;43.80;;;;;;5062337;28;20509;-58
2022/05/13 11:19:13;;;;;;;1.30;1.20;;;20.50;43.70;;;;;;5065252;28;20472;-58
2022/05/13 11:21:56;;;;;;;1.33;1.23;;;20.50;43.80;;;;;;5062998;28;20519;-58
2022/05/13 11:27:46;;;;;;;1.50;1.20;;;20.50;43.70;;;;;;5067468;28;20466;-58
2022/05/13 11:30:18;;;;;;;1.40;1.30;;;20.50;43.80;;;;;;5061094;28;20967;-58
2022/05/13 11:32:50;;;;;;;1.47;1.37;;;20.50;43.70;;;;;;5062512;28;20440;-58
2022/05/13 11:35:40;;;;;;;1.50;1.40;;;20.50;43.70;;;;;;5061843;28;20945;-58
2022/05/13 11:38:19;;;;;;;2.07;1.53;;;20.50;43.80;;;;;;5064100;28;20426;-58
2022/05/13 11:40:58;;;;;;;1.50;1.40;;;20.50;43.70;;;;;;5062660;28;20973;-59
2022/05/13 11:43:33;;;;;;;1.43;1.33;;;20.50;43.70;;;;;;5061368;28;20424;-57
2022/05/13 11:46:01;;;;;;;1.40;1.30;;;20.50;43.70;;;;;;5058468;28;20432;-58
2022/05/13 11:48:48;;;;;;;1.50;1.40;;;20.50;43.80;;;;;;5060243;28;20480;-59
2022/05/13 11:51:26;;;;;;;1.47;1.37;;;20.50;44.60;;;;;;5062502;28;20496;-58
2022/05/13 11:54:09;;;;;;;1.50;1.40;;;20.50;43.80;;;;;;5059166;28;20440;-57
2022/05/13 11:56:37;;;;;;;1.50;1.40;;;20.50;43.80;;;;;;5062036;28;20432;-58
2022/05/13 11:59:12;;;;;;;1.30;1.20;;;20.50;43.80;;;;;;5059550;28;20441;-57
2022/05/13 12:01:43;;;;;;;1.30;1.20;;;20.50;43.80;;;;;;5060670;28;20810;-58
2022/05/13 12:04:14;;;;;;;1.20;1.10;;;20.50;43.70;;;;;;5056746;28;20452;-58
2022/05/13 12:06:49;;;;;;;1.70;1.60;;;20.50;43.80;;;;;;5061652;28;20473;-58
2022/05/13 12:09:21;;;;;;;1.53;1.37;;;20.50;43.80;;;;;;5059736;28;20504;-58
2022/05/13 12:11:51;;;;;;;1.60;1.50;;;20.50;43.80;;;;;;5064877;28;20506;-59
2022/05/13 12:14:30;;;;;;;1.60;1.50;;;20.50;43.80;;;;;;5065668;28;20507;-58
2022/05/13 12:17:18;;;;;;;1.30;1.20;;;20.50;43.80;;;;;;5061785;28;20495;-57
2022/05/13 12:19:57;;;;;;;1.60;1.40;;;20.50;43.80;;;;;;5066482;28;20517;-57
2022/05/13 12:22:37;;;;;;;2.17;1.50;;;20.50;43.70;;;;;;5061182;28;20950;-58
2022/05/13 12:25:31;;;;;;;1.40;1.30;;;20.50;43.80;;;;;;5059225;28;20793;-57
2022/05/13 12:28:11;;;;;;;1.40;1.30;;;20.50;43.70;;;;;;5061452;28;20511;-58
2022/05/13 12:30:42;;;;;;;1.57;1.47;;;20.50;43.80;;;;;;5065677;28;20519;-59
2022/05/13 12:33:20;;;;;;;1.70;1.60;;;20.50;43.80;;;;;;5063014;28;20485;-57
2022/05/13 12:39:04;;;;;;;1.50;1.40;;;20.50;43.80;;;;;;5059024;28;20571;-58
2022/05/13 12:41:42;;;;;;;1.80;1.60;;;20.50;43.80;;;;;;5059667;28;20441;-60
2022/05/13 12:44:10;;;;;;;1.60;1.50;;;20.50;43.70;;;;;;5066601;28;20516;-59
2022/05/13 12:46:46;;;;;;;1.70;1.60;;;20.50;43.80;;;;;;5057998;28;20460;-61
2022/05/13 12:49:17;;;;;;;1.63;1.53;;;20.50;43.70;;;;;;5060439;28;20486;-60
2022/05/13 12:51:59;;;;;;;2.00;1.53;;;20.50;43.80;;;;;;5058578;28;20456;-59
2022/05/13 12:54:27;;;;;;;1.70;1.60;;;20.50;43.80;;;;;;5059539;28;20446;-59
2022/05/13 12:57:06;;;;;;;1.90;1.70;;;20.50;43.80;;;;;;5058904;28;20451;-59
2022/05/13 12:59:37;;;;;;;1.60;1.50;;;20.50;43.80;;;;;;5057643;28;20454;-59
2022/05/13 13:02:04;;;;;;;1.60;1.50;;;20.50;43.80;;;;;;5062774;28;21001;-58
2022/05/13 13:04:34;;;;;;;1.83;1.73;;;20.50;43.80;;;;;;5059115;28;20415;-58
2022/05/13 13:07:09;;;;;;;2.30;1.60;;;20.50;43.80;;;;;;5062711;28;20502;-59
2022/05/13 13:09:41;;;;;;;1.90;1.80;;;20.50;43.80;;;;;;5059634;28;20496;-58
2022/05/13 13:12:46;;;;;;;1.67;1.57;;;20.50;43.80;;;;;;5067613;28;20471;-58
2022/05/13 13:15:19;;;;;;;1.90;1.60;;;20.50;43.90;;;;;;5039439;28;20517;-58
2022/05/13 13:18:06;;;;;;;1.73;1.63;;;20.50;43.90;;;;;;5057965;28;20451;-58
2022/05/13 13:20:43;;;;;;;2.03;1.53;;;20.50;43.80;;;;;;5057314;28;20455;-59
2022/05/13 13:23:11;;;;;;;1.67;1.57;;;20.50;43.80;;;;;;5059249;28;20466;-59
2022/05/13 13:25:41;;;;;;;1.90;1.80;;;20.50;43.80;;;;;;5057022;28;20438;-58
2022/05/13 13:28:14;;;;;;;1.67;1.57;;;20.50;43.90;;;;;;5061696;28;20450;-58
2022/05/13 13:30:43;;;;;;;1.97;1.87;;;20.50;43.80;;;;;;5065164;28;20510;-58
2022/05/13 13:33:10;;;;;;;1.53;1.43;;;20.50;43.90;;;;;;5057946;28;20450;-57
2022/05/13 13:35:37;;;;;;;1.70;1.60;;;20.40;43.70;;;;;;5058286;28;20821;-58
2022/05/13 13:38:07;;;;;;;2.00;1.90;;;20.50;43.80;;;;;;5061750;28;20469;-58
2022/05/13 13:40:37;;;;;;;1.80;1.70;;;20.50;43.80;;;;;;5059830;28;20520;-58
2022/05/13 13:43:18;;;;;;;2.00;1.80;;;20.50;43.80;;;;;;5060732;28;20433;-58